sensor_id;sensor_type;location;lat;lon;timestamp;P1;durP1;ratioP1;P2;durP2;ratioP2
22248;SDS011;67538;52.180;5.646;2023-03-23T00:01:06;16.65;;;6.75;;
22248;SDS011;67538;52.180;5.646;2023-03-23T00:03:38;14.25;;;6.78;;
22248;SDS011;67538;52.180;5.646;2023-03-23T00:06:05;10.63;;;6.78;;
22248;SDS011;67538;52.180;5.646;2023-03-23T00:08:34;12.60;;;6.70;;
22248;SDS011;67538;52.180;5.646;2023-03-23T00:11:04;13.50;;;6.97;;
22248;SDS011;67538;52.180;5.646;2023-03-23T00:13:32;13.45;;;7.03;;
22248;SDS011;67538;52.180;5.646;2023-03-23T00:15:59;13.40;;;6.60;;
22248;SDS011;67538;52.180;5.646;2023-03-23T00:18:27;15.07;;;7.03;;
22248;SDS011;67538;52.180;5.646;2023-03-23T00:20:55;12.60;;;6.68;;
22248;SDS011;67538;52.180;5.646;2023-03-23T00:23:24;12.93;;;6.40;;
22248;SDS011;67538;52.180;5.646;2023-03-23T00:25:52;12.40;;;6.55;;
22248;SDS011;67538;52.180;5.646;2023-03-23T00:28:23;12.57;;;6.60;;
22248;SDS011;67538;52.180;5.646;2023-03-23T00:30:54;11.40;;;6.22;;
22248;SDS011;67538;52.180;5.646;2023-03-23T00:33:23;11.52;;;6.07;;
22248;SDS011;67538;52.180;5.646;2023-03-23T00:35:51;12.90;;;6.27;;
22248;SDS011;67538;52.180;5.646;2023-03-23T00:38:19;11.33;;;5.97;;
22248;SDS011;67538;52.180;5.646;2023-03-23T00:40:46;10.85;;;5.85;;
22248;SDS011;67538;52.180;5.646;2023-03-23T00:43:14;11.07;;;5.82;;
22248;SDS011;67538;52.180;5.646;2023-03-23T00:45:43;11.68;;;5.53;;
22248;SDS011;67538;52.180;5.646;2023-03-23T00:48:14;11.50;;;5.75;;
22248;SDS011;67538;52.180;5.646;2023-03-23T00:50:41;10.75;;;5.50;;
22248;SDS011;67538;52.180;5.646;2023-03-23T00:53:08;10.45;;;5.88;;
22248;SDS011;67538;52.180;5.646;2023-03-23T00:55:35;13.18;;;5.97;;
22248;SDS011;67538;52.180;5.646;2023-03-23T00:58:02;11.10;;;5.60;;
22248;SDS011;67538;52.180;5.646;2023-03-23T01:00:30;9.37;;;5.43;;
22248;SDS011;67538;52.180;5.646;2023-03-23T01:02:58;8.82;;;4.93;;
22248;SDS011;67538;52.180;5.646;2023-03-23T01:05:25;10.50;;;5.13;;
22248;SDS011;67538;52.180;5.646;2023-03-23T01:07:56;10.93;;;5.30;;
22248;SDS011;67538;52.180;5.646;2023-03-23T01:10:24;12.68;;;5.63;;
22248;SDS011;67538;52.180;5.646;2023-03-23T01:12:51;10.03;;;5.17;;
22248;SDS011;67538;52.180;5.646;2023-03-23T01:15:19;10.18;;;5.20;;
22248;SDS011;67538;52.180;5.646;2023-03-23T01:17:47;9.27;;;5.30;;
22248;SDS011;67538;52.180;5.646;2023-03-23T01:20:15;9.30;;;4.85;;
22248;SDS011;67538;52.180;5.646;2023-03-23T01:22:42;10.23;;;4.95;;
22248;SDS011;67538;52.180;5.646;2023-03-23T01:25:10;9.23;;;4.43;;
22248;SDS011;67538;52.180;5.646;2023-03-23T01:27:39;9.52;;;4.63;;
22248;SDS011;67538;52.180;5.646;2023-03-23T01:30:07;11.43;;;4.88;;
22248;SDS011;67538;52.180;5.646;2023-03-23T01:32:37;7.70;;;4.80;;
22248;SDS011;67538;52.180;5.646;2023-03-23T01:35:05;8.77;;;4.53;;
22248;SDS011;67538;52.180;5.646;2023-03-23T01:37:33;6.95;;;4.20;;
22248;SDS011;67538;52.180;5.646;2023-03-23T01:40:01;8.15;;;4.45;;
22248;SDS011;67538;52.180;5.646;2023-03-23T01:42:30;10.37;;;4.40;;
22248;SDS011;67538;52.180;5.646;2023-03-23T01:47:54;8.57;;;4.70;;
22248;SDS011;67538;52.180;5.646;2023-03-23T01:50:28;9.23;;;4.57;;
22248;SDS011;67538;52.180;5.646;2023-03-23T01:53:02;7.93;;;4.72;;
22248;SDS011;67538;52.180;5.646;2023-03-23T01:55:33;7.82;;;4.35;;
22248;SDS011;67538;52.180;5.646;2023-03-23T01:58:04;6.80;;;4.28;;
22248;SDS011;67538;52.180;5.646;2023-03-23T02:00:32;6.27;;;4.37;;
22248;SDS011;67538;52.180;5.646;2023-03-23T02:03:02;10.80;;;4.68;;
22248;SDS011;67538;52.180;5.646;2023-03-23T02:05:30;7.53;;;4.50;;
22248;SDS011;67538;52.180;5.646;2023-03-23T02:08:03;7.75;;;4.63;;
22248;SDS011;67538;52.180;5.646;2023-03-23T02:10:34;8.02;;;4.57;;
22248;SDS011;67538;52.180;5.646;2023-03-23T02:13:02;8.45;;;4.57;;
22248;SDS011;67538;52.180;5.646;2023-03-23T02:15:32;9.95;;;4.57;;
22248;SDS011;67538;52.180;5.646;2023-03-23T02:18:07;9.15;;;4.70;;
22248;SDS011;67538;52.180;5.646;2023-03-23T02:20:48;7.47;;;4.93;;
22248;SDS011;67538;52.180;5.646;2023-03-23T02:23:42;9.02;;;5.15;;
22248;SDS011;67538;52.180;5.646;2023-03-23T02:26:25;10.07;;;5.17;;
22248;SDS011;67538;52.180;5.646;2023-03-23T02:32:12;7.97;;;5.15;;
22248;SDS011;67538;52.180;5.646;2023-03-23T02:34:49;10.60;;;5.25;;
22248;SDS011;67538;52.180;5.646;2023-03-23T02:37:19;9.82;;;5.25;;
22248;SDS011;67538;52.180;5.646;2023-03-23T02:39:51;7.93;;;5.00;;
22248;SDS011;67538;52.180;5.646;2023-03-23T02:42:22;8.57;;;4.80;;
22248;SDS011;67538;52.180;5.646;2023-03-23T02:44:52;8.75;;;5.05;;
22248;SDS011;67538;52.180;5.646;2023-03-23T02:47:22;9.00;;;5.20;;
22248;SDS011;67538;52.180;5.646;2023-03-23T02:49:53;7.90;;;5.05;;
22248;SDS011;67538;52.180;5.646;2023-03-23T02:52:22;9.75;;;5.18;;
22248;SDS011;67538;52.180;5.646;2023-03-23T02:54:52;10.82;;;5.30;;
22248;SDS011;67538;52.180;5.646;2023-03-23T02:57:21;8.65;;;5.15;;
22248;SDS011;67538;52.180;5.646;2023-03-23T02:59:49;9.38;;;5.50;;
22248;SDS011;67538;52.180;5.646;2023-03-23T03:02:17;7.90;;;5.55;;
22248;SDS011;67538;52.180;5.646;2023-03-23T03:04:48;8.15;;;5.50;;
22248;SDS011;67538;52.180;5.646;2023-03-23T03:07:30;7.63;;;5.43;;
22248;SDS011;67538;52.180;5.646;2023-03-23T03:10:04;9.20;;;5.80;;
22248;SDS011;67538;52.180;5.646;2023-03-23T03:12:41;10.43;;;5.40;;
22248;SDS011;67538;52.180;5.646;2023-03-23T03:15:17;10.43;;;5.53;;
22248;SDS011;67538;52.180;5.646;2023-03-23T03:17:51;8.35;;;4.97;;
22248;SDS011;67538;52.180;5.646;2023-03-23T03:20:23;10.23;;;5.63;;
22248;SDS011;67538;52.180;5.646;2023-03-23T03:22:53;7.80;;;5.20;;
22248;SDS011;67538;52.180;5.646;2023-03-23T03:25:21;8.20;;;5.00;;
22248;SDS011;67538;52.180;5.646;2023-03-23T03:27:49;10.60;;;4.93;;
22248;SDS011;67538;52.180;5.646;2023-03-23T03:30:19;9.85;;;5.35;;
22248;SDS011;67538;52.180;5.646;2023-03-23T03:32:51;8.05;;;4.90;;
22248;SDS011;67538;52.180;5.646;2023-03-23T03:35:20;11.73;;;5.18;;
22248;SDS011;67538;52.180;5.646;2023-03-23T03:37:49;10.50;;;4.53;;
22248;SDS011;67538;52.180;5.646;2023-03-23T03:40:17;8.73;;;4.82;;
22248;SDS011;67538;52.180;5.646;2023-03-23T03:42:46;8.93;;;4.78;;
22248;SDS011;67538;52.180;5.646;2023-03-23T03:45:14;8.67;;;4.30;;
22248;SDS011;67538;52.180;5.646;2023-03-23T03:47:42;8.38;;;4.70;;
22248;SDS011;67538;52.180;5.646;2023-03-23T03:50:10;9.63;;;4.88;;
22248;SDS011;67538;52.180;5.646;2023-03-23T03:52:37;13.23;;;4.50;;
22248;SDS011;67538;52.180;5.646;2023-03-23T03:55:07;9.00;;;4.35;;
22248;SDS011;67538;52.180;5.646;2023-03-23T03:57:35;8.70;;;3.90;;
22248;SDS011;67538;52.180;5.646;2023-03-23T04:00:03;8.83;;;4.07;;
22248;SDS011;67538;52.180;5.646;2023-03-23T04:02:42;9.25;;;4.03;;
22248;SDS011;67538;52.180;5.646;2023-03-23T04:05:12;8.20;;;4.45;;
22248;SDS011;67538;52.180;5.646;2023-03-23T04:07:40;7.35;;;4.32;;
22248;SDS011;67538;52.180;5.646;2023-03-23T04:10:09;7.72;;;4.07;;
22248;SDS011;67538;52.180;5.646;2023-03-23T04:12:38;9.95;;;3.95;;
22248;SDS011;67538;52.180;5.646;2023-03-23T04:15:06;8.77;;;4.03;;
22248;SDS011;67538;52.180;5.646;2023-03-23T04:17:33;9.52;;;4.07;;
22248;SDS011;67538;52.180;5.646;2023-03-23T04:20:03;11.38;;;4.40;;
22248;SDS011;67538;52.180;5.646;2023-03-23T04:22:37;8.23;;;4.13;;
22248;SDS011;67538;52.180;5.646;2023-03-23T04:25:10;9.73;;;3.80;;
22248;SDS011;67538;52.180;5.646;2023-03-23T04:27:39;10.77;;;3.92;;
22248;SDS011;67538;52.180;5.646;2023-03-23T04:30:09;11.10;;;4.17;;
22248;SDS011;67538;52.180;5.646;2023-03-23T04:32:38;12.40;;;4.35;;
22248;SDS011;67538;52.180;5.646;2023-03-23T04:35:07;10.55;;;4.22;;
22248;SDS011;67538;52.180;5.646;2023-03-23T04:37:36;9.57;;;4.20;;
22248;SDS011;67538;52.180;5.646;2023-03-23T04:40:04;9.18;;;3.95;;
22248;SDS011;67538;52.180;5.646;2023-03-23T04:42:37;9.52;;;3.92;;
22248;SDS011;67538;52.180;5.646;2023-03-23T04:45:06;9.10;;;3.83;;
22248;SDS011;67538;52.180;5.646;2023-03-23T04:47:35;10.60;;;3.87;;
22248;SDS011;67538;52.180;5.646;2023-03-23T04:50:06;8.57;;;3.53;;
22248;SDS011;67538;52.180;5.646;2023-03-23T04:52:37;10.43;;;3.60;;
22248;SDS011;67538;52.180;5.646;2023-03-23T04:55:05;11.03;;;3.30;;
22248;SDS011;67538;52.180;5.646;2023-03-23T04:57:34;8.43;;;3.50;;
22248;SDS011;67538;52.180;5.646;2023-03-23T05:00:03;9.75;;;3.13;;
22248;SDS011;67538;52.180;5.646;2023-03-23T05:02:34;11.57;;;3.25;;
22248;SDS011;67538;52.180;5.646;2023-03-23T05:05:01;10.53;;;3.17;;
22248;SDS011;67538;52.180;5.646;2023-03-23T05:07:29;9.82;;;3.10;;
22248;SDS011;67538;52.180;5.646;2023-03-23T05:09:56;12.05;;;3.38;;
22248;SDS011;67538;52.180;5.646;2023-03-23T05:12:23;11.23;;;3.30;;
22248;SDS011;67538;52.180;5.646;2023-03-23T05:14:50;9.25;;;3.10;;
22248;SDS011;67538;52.180;5.646;2023-03-23T05:17:18;14.70;;;3.70;;
22248;SDS011;67538;52.180;5.646;2023-03-23T05:19:45;9.65;;;3.20;;
22248;SDS011;67538;52.180;5.646;2023-03-23T05:22:12;9.20;;;3.28;;
22248;SDS011;67538;52.180;5.646;2023-03-23T05:24:40;12.63;;;3.50;;
22248;SDS011;67538;52.180;5.646;2023-03-23T05:27:08;15.43;;;3.80;;
22248;SDS011;67538;52.180;5.646;2023-03-23T05:29:36;14.15;;;3.60;;
22248;SDS011;67538;52.180;5.646;2023-03-23T05:32:06;13.77;;;3.58;;
22248;SDS011;67538;52.180;5.646;2023-03-23T05:34:35;10.73;;;3.17;;
22248;SDS011;67538;52.180;5.646;2023-03-23T05:37:02;16.13;;;3.60;;
22248;SDS011;67538;52.180;5.646;2023-03-23T05:39:30;14.20;;;3.67;;
22248;SDS011;67538;52.180;5.646;2023-03-23T05:41:57;18.02;;;4.03;;
22248;SDS011;67538;52.180;5.646;2023-03-23T05:44:24;13.15;;;3.70;;
22248;SDS011;67538;52.180;5.646;2023-03-23T05:46:52;14.15;;;3.58;;
22248;SDS011;67538;52.180;5.646;2023-03-23T05:49:19;12.73;;;3.50;;
22248;SDS011;67538;52.180;5.646;2023-03-23T05:51:48;13.73;;;3.70;;
22248;SDS011;67538;52.180;5.646;2023-03-23T05:54:15;17.33;;;4.35;;
22248;SDS011;67538;52.180;5.646;2023-03-23T05:56:43;15.13;;;3.55;;
22248;SDS011;67538;52.180;5.646;2023-03-23T05:59:10;14.13;;;3.72;;
22248;SDS011;67538;52.180;5.646;2023-03-23T06:01:38;17.77;;;4.00;;
22248;SDS011;67538;52.180;5.646;2023-03-23T06:04:05;16.20;;;3.75;;
22248;SDS011;67538;52.180;5.646;2023-03-23T06:06:32;17.20;;;4.03;;
22248;SDS011;67538;52.180;5.646;2023-03-23T06:09:01;19.93;;;4.33;;
22248;SDS011;67538;52.180;5.646;2023-03-23T06:11:28;16.92;;;4.15;;
22248;SDS011;67538;52.180;5.646;2023-03-23T06:13:55;21.98;;;4.22;;
22248;SDS011;67538;52.180;5.646;2023-03-23T06:16:23;17.20;;;4.25;;
22248;SDS011;67538;52.180;5.646;2023-03-23T06:18:50;18.40;;;4.72;;
22248;SDS011;67538;52.180;5.646;2023-03-23T06:21:17;19.83;;;4.67;;
22248;SDS011;67538;52.180;5.646;2023-03-23T06:23:44;21.02;;;4.50;;
22248;SDS011;67538;52.180;5.646;2023-03-23T06:26:13;19.15;;;4.32;;
22248;SDS011;67538;52.180;5.646;2023-03-23T06:28:42;16.60;;;4.20;;
22248;SDS011;67538;52.180;5.646;2023-03-23T06:31:09;19.08;;;4.40;;
22248;SDS011;67538;52.180;5.646;2023-03-23T06:33:39;16.90;;;4.43;;
22248;SDS011;67538;52.180;5.646;2023-03-23T06:36:07;21.83;;;4.60;;
22248;SDS011;67538;52.180;5.646;2023-03-23T06:38:37;14.82;;;4.30;;
22248;SDS011;67538;52.180;5.646;2023-03-23T06:41:04;21.13;;;5.35;;
22248;SDS011;67538;52.180;5.646;2023-03-23T06:43:33;19.13;;;4.63;;
22248;SDS011;67538;52.180;5.646;2023-03-23T06:46:01;18.67;;;4.80;;
22248;SDS011;67538;52.180;5.646;2023-03-23T06:48:28;18.58;;;4.53;;
22248;SDS011;67538;52.180;5.646;2023-03-23T06:50:55;18.17;;;4.88;;
22248;SDS011;67538;52.180;5.646;2023-03-23T06:53:22;24.73;;;4.87;;
22248;SDS011;67538;52.180;5.646;2023-03-23T06:55:51;22.30;;;5.25;;
22248;SDS011;67538;52.180;5.646;2023-03-23T06:58:18;18.75;;;5.00;;
22248;SDS011;67538;52.180;5.646;2023-03-23T07:00:47;24.20;;;5.50;;
22248;SDS011;67538;52.180;5.646;2023-03-23T07:03:14;18.85;;;4.70;;
22248;SDS011;67538;52.180;5.646;2023-03-23T07:05:41;19.70;;;5.33;;
22248;SDS011;67538;52.180;5.646;2023-03-23T07:08:11;19.08;;;4.90;;
22248;SDS011;67538;52.180;5.646;2023-03-23T07:10:38;23.08;;;5.85;;
22248;SDS011;67538;52.180;5.646;2023-03-23T07:13:06;20.58;;;4.95;;
22248;SDS011;67538;52.180;5.646;2023-03-23T07:15:33;16.52;;;4.60;;
22248;SDS011;67538;52.180;5.646;2023-03-23T07:18:02;22.08;;;5.30;;
22248;SDS011;67538;52.180;5.646;2023-03-23T07:20:29;18.52;;;4.95;;
22248;SDS011;67538;52.180;5.646;2023-03-23T07:22:56;17.73;;;5.07;;
22248;SDS011;67538;52.180;5.646;2023-03-23T07:25:23;21.23;;;5.38;;
22248;SDS011;67538;52.180;5.646;2023-03-23T07:27:50;19.45;;;5.25;;
22248;SDS011;67538;52.180;5.646;2023-03-23T07:30:17;20.08;;;4.75;;
22248;SDS011;67538;52.180;5.646;2023-03-23T07:32:45;20.30;;;5.25;;
22248;SDS011;67538;52.180;5.646;2023-03-23T07:35:13;18.48;;;5.05;;
22248;SDS011;67538;52.180;5.646;2023-03-23T07:37:41;21.13;;;5.10;;
22248;SDS011;67538;52.180;5.646;2023-03-23T07:40:08;19.17;;;5.30;;
22248;SDS011;67538;52.180;5.646;2023-03-23T07:42:40;17.83;;;4.85;;
22248;SDS011;67538;52.180;5.646;2023-03-23T07:45:09;16.55;;;4.90;;
22248;SDS011;67538;52.180;5.646;2023-03-23T07:47:37;19.10;;;4.82;;
22248;SDS011;67538;52.180;5.646;2023-03-23T07:50:05;14.68;;;4.60;;
22248;SDS011;67538;52.180;5.646;2023-03-23T07:52:35;16.15;;;3.95;;
22248;SDS011;67538;52.180;5.646;2023-03-23T07:55:03;13.05;;;4.07;;
22248;SDS011;67538;52.180;5.646;2023-03-23T07:57:32;15.10;;;3.92;;
22248;SDS011;67538;52.180;5.646;2023-03-23T07:59:59;18.95;;;4.05;;
22248;SDS011;67538;52.180;5.646;2023-03-23T08:02:28;14.02;;;3.75;;
22248;SDS011;67538;52.180;5.646;2023-03-23T08:04:56;15.55;;;3.78;;
22248;SDS011;67538;52.180;5.646;2023-03-23T08:07:25;14.45;;;3.70;;
22248;SDS011;67538;52.180;5.646;2023-03-23T08:09:54;16.80;;;3.90;;
22248;SDS011;67538;52.180;5.646;2023-03-23T08:12:21;19.10;;;4.65;;
22248;SDS011;67538;52.180;5.646;2023-03-23T08:14:48;12.15;;;4.00;;
22248;SDS011;67538;52.180;5.646;2023-03-23T08:17:16;13.23;;;3.77;;
22248;SDS011;67538;52.180;5.646;2023-03-23T08:19:43;16.23;;;4.30;;
22248;SDS011;67538;52.180;5.646;2023-03-23T08:22:10;14.43;;;3.95;;
22248;SDS011;67538;52.180;5.646;2023-03-23T08:24:38;12.77;;;3.80;;
22248;SDS011;67538;52.180;5.646;2023-03-23T08:27:07;12.10;;;4.07;;
22248;SDS011;67538;52.180;5.646;2023-03-23T08:29:34;13.93;;;3.70;;
22248;SDS011;67538;52.180;5.646;2023-03-23T08:32:01;16.30;;;4.20;;
22248;SDS011;67538;52.180;5.646;2023-03-23T08:34:29;11.60;;;3.80;;
22248;SDS011;67538;52.180;5.646;2023-03-23T08:36:56;13.10;;;3.83;;
22248;SDS011;67538;52.180;5.646;2023-03-23T08:39:23;14.00;;;4.00;;
22248;SDS011;67538;52.180;5.646;2023-03-23T08:41:50;17.42;;;4.18;;
22248;SDS011;67538;52.180;5.646;2023-03-23T08:44:18;14.25;;;4.00;;
22248;SDS011;67538;52.180;5.646;2023-03-23T08:46:46;14.73;;;3.75;;
22248;SDS011;67538;52.180;5.646;2023-03-23T08:49:13;13.95;;;3.80;;
22248;SDS011;67538;52.180;5.646;2023-03-23T08:51:40;11.77;;;3.97;;
22248;SDS011;67538;52.180;5.646;2023-03-23T08:54:08;12.93;;;3.53;;
22248;SDS011;67538;52.180;5.646;2023-03-23T08:56:35;15.05;;;3.72;;
22248;SDS011;67538;52.180;5.646;2023-03-23T08:59:02;11.88;;;3.60;;
22248;SDS011;67538;52.180;5.646;2023-03-23T09:01:31;15.18;;;3.90;;
22248;SDS011;67538;52.180;5.646;2023-03-23T09:03:58;13.05;;;4.15;;
22248;SDS011;67538;52.180;5.646;2023-03-23T09:06:25;12.27;;;3.70;;
22248;SDS011;67538;52.180;5.646;2023-03-23T09:08:53;15.35;;;4.55;;
22248;SDS011;67538;52.180;5.646;2023-03-23T09:11:20;15.07;;;4.20;;
22248;SDS011;67538;52.180;5.646;2023-03-23T09:13:48;14.82;;;4.10;;
22248;SDS011;67538;52.180;5.646;2023-03-23T09:16:15;15.15;;;4.10;;
22248;SDS011;67538;52.180;5.646;2023-03-23T09:18:43;13.95;;;3.80;;
22248;SDS011;67538;52.180;5.646;2023-03-23T09:21:11;13.40;;;3.75;;
22248;SDS011;67538;52.180;5.646;2023-03-23T09:23:38;13.77;;;3.83;;
22248;SDS011;67538;52.180;5.646;2023-03-23T09:26:09;15.50;;;4.10;;
22248;SDS011;67538;52.180;5.646;2023-03-23T09:28:36;13.75;;;4.20;;
22248;SDS011;67538;52.180;5.646;2023-03-23T09:31:03;17.48;;;4.22;;
22248;SDS011;67538;52.180;5.646;2023-03-23T09:33:31;19.35;;;4.32;;
22248;SDS011;67538;52.180;5.646;2023-03-23T09:36:00;17.60;;;4.50;;
22248;SDS011;67538;52.180;5.646;2023-03-23T09:38:30;16.23;;;4.40;;
22248;SDS011;67538;52.180;5.646;2023-03-23T09:40:59;17.05;;;4.13;;
22248;SDS011;67538;52.180;5.646;2023-03-23T09:43:44;12.60;;;3.80;;
22248;SDS011;67538;52.180;5.646;2023-03-23T09:46:27;19.60;;;4.50;;
22248;SDS011;67538;52.180;5.646;2023-03-23T09:49:02;15.73;;;4.22;;
22248;SDS011;67538;52.180;5.646;2023-03-23T09:51:40;13.77;;;4.10;;
22248;SDS011;67538;52.180;5.646;2023-03-23T09:54:12;15.15;;;4.25;;
22248;SDS011;67538;52.180;5.646;2023-03-23T09:56:45;15.83;;;4.00;;
22248;SDS011;67538;52.180;5.646;2023-03-23T09:59:15;14.18;;;4.20;;
22248;SDS011;67538;52.180;5.646;2023-03-23T10:01:47;13.93;;;4.00;;
22248;SDS011;67538;52.180;5.646;2023-03-23T10:04:27;15.02;;;4.28;;
22248;SDS011;67538;52.180;5.646;2023-03-23T10:07:05;18.00;;;4.20;;
22248;SDS011;67538;52.180;5.646;2023-03-23T10:09:37;14.73;;;3.80;;
22248;SDS011;67538;52.180;5.646;2023-03-23T10:12:07;20.27;;;3.67;;
22248;SDS011;67538;52.180;5.646;2023-03-23T10:14:47;20.25;;;4.20;;
22248;SDS011;67538;52.180;5.646;2023-03-23T10:17:32;15.02;;;3.95;;
22248;SDS011;67538;52.180;5.646;2023-03-23T10:20:19;15.75;;;4.15;;
22248;SDS011;67538;52.180;5.646;2023-03-23T10:22:56;18.33;;;4.18;;
22248;SDS011;67538;52.180;5.646;2023-03-23T10:25:29;19.55;;;4.10;;
22248;SDS011;67538;52.180;5.646;2023-03-23T10:28:01;20.60;;;3.90;;
22248;SDS011;67538;52.180;5.646;2023-03-23T10:30:34;16.67;;;3.90;;
22248;SDS011;67538;52.180;5.646;2023-03-23T10:33:08;15.00;;;3.85;;
22248;SDS011;67538;52.180;5.646;2023-03-23T10:35:39;15.32;;;3.85;;
22248;SDS011;67538;52.180;5.646;2023-03-23T10:38:14;15.95;;;4.00;;
22248;SDS011;67538;52.180;5.646;2023-03-23T10:40:47;16.52;;;3.97;;
22248;SDS011;67538;52.180;5.646;2023-03-23T10:43:17;15.55;;;3.50;;
22248;SDS011;67538;52.180;5.646;2023-03-23T10:45:45;18.52;;;4.32;;
22248;SDS011;67538;52.180;5.646;2023-03-23T10:48:22;18.27;;;4.03;;
22248;SDS011;67538;52.180;5.646;2023-03-23T10:50:54;18.05;;;3.90;;
22248;SDS011;67538;52.180;5.646;2023-03-23T10:53:26;20.15;;;3.92;;
22248;SDS011;67538;52.180;5.646;2023-03-23T10:55:57;17.60;;;3.88;;
22248;SDS011;67538;52.180;5.646;2023-03-23T10:58:26;20.13;;;4.00;;
22248;SDS011;67538;52.180;5.646;2023-03-23T11:00:55;18.38;;;3.80;;
22248;SDS011;67538;52.180;5.646;2023-03-23T11:03:33;17.73;;;3.78;;
22248;SDS011;67538;52.180;5.646;2023-03-23T11:06:06;17.55;;;4.00;;
22248;SDS011;67538;52.180;5.646;2023-03-23T11:08:37;18.97;;;4.10;;
22248;SDS011;67538;52.180;5.646;2023-03-23T11:11:15;19.73;;;3.70;;
22248;SDS011;67538;52.180;5.646;2023-03-23T11:13:44;21.98;;;4.95;;
22248;SDS011;67538;52.180;5.646;2023-03-23T11:16:22;19.35;;;4.50;;
22248;SDS011;67538;52.180;5.646;2023-03-23T11:18:50;19.10;;;3.70;;
22248;SDS011;67538;52.180;5.646;2023-03-23T11:21:17;23.67;;;4.43;;
22248;SDS011;67538;52.180;5.646;2023-03-23T11:23:49;18.25;;;3.78;;
22248;SDS011;67538;52.180;5.646;2023-03-23T11:26:19;19.52;;;4.18;;
22248;SDS011;67538;52.180;5.646;2023-03-23T11:28:51;21.35;;;3.85;;
22248;SDS011;67538;52.180;5.646;2023-03-23T11:31:22;18.87;;;4.03;;
22248;SDS011;67538;52.180;5.646;2023-03-23T11:33:52;20.08;;;4.10;;
22248;SDS011;67538;52.180;5.646;2023-03-23T11:36:28;15.77;;;3.60;;
22248;SDS011;67538;52.180;5.646;2023-03-23T11:39:16;16.57;;;3.70;;
22248;SDS011;67538;52.180;5.646;2023-03-23T11:41:46;18.50;;;4.35;;
22248;SDS011;67538;52.180;5.646;2023-03-23T11:44:14;21.35;;;4.03;;
22248;SDS011;67538;52.180;5.646;2023-03-23T11:46:44;18.65;;;3.67;;
22248;SDS011;67538;52.180;5.646;2023-03-23T11:49:22;16.13;;;3.60;;
22248;SDS011;67538;52.180;5.646;2023-03-23T11:51:58;18.23;;;4.20;;
22248;SDS011;67538;52.180;5.646;2023-03-23T11:54:31;18.08;;;3.88;;
22248;SDS011;67538;52.180;5.646;2023-03-23T11:57:05;15.98;;;3.67;;
22248;SDS011;67538;52.180;5.646;2023-03-23T11:59:35;18.67;;;3.67;;
22248;SDS011;67538;52.180;5.646;2023-03-23T12:02:08;15.20;;;3.95;;
22248;SDS011;67538;52.180;5.646;2023-03-23T12:07:52;14.77;;;3.45;;
22248;SDS011;67538;52.180;5.646;2023-03-23T12:10:29;16.80;;;4.00;;
22248;SDS011;67538;52.180;5.646;2023-03-23T12:13:11;16.15;;;3.90;;
22248;SDS011;67538;52.180;5.646;2023-03-23T12:15:50;16.70;;;4.00;;
22248;SDS011;67538;52.180;5.646;2023-03-23T12:18:36;17.23;;;4.03;;
22248;SDS011;67538;52.180;5.646;2023-03-23T12:21:12;16.02;;;3.88;;
22248;SDS011;67538;52.180;5.646;2023-03-23T12:23:48;18.70;;;3.80;;
22248;SDS011;67538;52.180;5.646;2023-03-23T12:26:23;19.30;;;3.92;;
22248;SDS011;67538;52.180;5.646;2023-03-23T12:29:03;19.47;;;4.50;;
22248;SDS011;67538;52.180;5.646;2023-03-23T12:31:44;20.85;;;4.15;;
22248;SDS011;67538;52.180;5.646;2023-03-23T12:34:18;20.45;;;4.70;;
22248;SDS011;67538;52.180;5.646;2023-03-23T12:37:04;16.27;;;4.18;;
22248;SDS011;67538;52.180;5.646;2023-03-23T12:39:50;18.08;;;4.40;;
22248;SDS011;67538;52.180;5.646;2023-03-23T12:42:37;18.70;;;4.32;;
22248;SDS011;67538;52.180;5.646;2023-03-23T12:45:18;20.55;;;4.43;;
22248;SDS011;67538;52.180;5.646;2023-03-23T12:47:52;18.88;;;4.15;;
22248;SDS011;67538;52.180;5.646;2023-03-23T12:50:25;20.52;;;4.22;;
22248;SDS011;67538;52.180;5.646;2023-03-23T12:52:56;17.27;;;4.10;;
22248;SDS011;67538;52.180;5.646;2023-03-23T12:55:28;16.83;;;3.85;;
22248;SDS011;67538;52.180;5.646;2023-03-23T12:58:02;20.20;;;4.18;;
22248;SDS011;67538;52.180;5.646;2023-03-23T13:00:33;20.33;;;4.55;;
22248;SDS011;67538;52.180;5.646;2023-03-23T13:03:17;18.20;;;3.90;;
22248;SDS011;67538;52.180;5.646;2023-03-23T13:05:52;20.17;;;4.28;;
22248;SDS011;67538;52.180;5.646;2023-03-23T13:08:24;16.08;;;3.83;;
22248;SDS011;67538;52.180;5.646;2023-03-23T13:10:54;15.43;;;3.85;;
22248;SDS011;67538;52.180;5.646;2023-03-23T13:13:27;14.73;;;3.92;;
22248;SDS011;67538;52.180;5.646;2023-03-23T13:16:07;13.82;;;3.45;;
22248;SDS011;67538;52.180;5.646;2023-03-23T13:18:42;12.80;;;3.10;;
22248;SDS011;67538;52.180;5.646;2023-03-23T13:21:17;11.80;;;3.40;;
22248;SDS011;67538;52.180;5.646;2023-03-23T13:23:48;12.25;;;3.42;;
22248;SDS011;67538;52.180;5.646;2023-03-23T13:26:18;12.65;;;3.22;;
22248;SDS011;67538;52.180;5.646;2023-03-23T13:28:54;11.27;;;2.83;;
22248;SDS011;67538;52.180;5.646;2023-03-23T13:31:24;11.30;;;3.40;;
22248;SDS011;67538;52.180;5.646;2023-03-23T13:33:58;12.75;;;3.58;;
22248;SDS011;67538;52.180;5.646;2023-03-23T13:36:31;11.90;;;3.15;;
22248;SDS011;67538;52.180;5.646;2023-03-23T13:39:03;13.55;;;3.47;;
22248;SDS011;67538;52.180;5.646;2023-03-23T13:41:34;11.85;;;3.50;;
22248;SDS011;67538;52.180;5.646;2023-03-23T13:44:17;15.27;;;3.40;;
22248;SDS011;67538;52.180;5.646;2023-03-23T13:46:56;14.73;;;3.50;;
22248;SDS011;67538;52.180;5.646;2023-03-23T13:49:31;14.07;;;3.38;;
22248;SDS011;67538;52.180;5.646;2023-03-23T13:52:00;12.00;;;3.13;;
22248;SDS011;67538;52.180;5.646;2023-03-23T13:54:39;12.52;;;3.17;;
22248;SDS011;67538;52.180;5.646;2023-03-23T13:57:33;12.55;;;2.92;;
22248;SDS011;67538;52.180;5.646;2023-03-23T14:00:24;16.07;;;3.80;;
22248;SDS011;67538;52.180;5.646;2023-03-23T14:03:00;18.47;;;3.57;;
22248;SDS011;67538;52.180;5.646;2023-03-23T14:05:33;14.83;;;3.43;;
22248;SDS011;67538;52.180;5.646;2023-03-23T14:08:02;14.53;;;3.33;;
22248;SDS011;67538;52.180;5.646;2023-03-23T14:10:37;15.23;;;3.65;;
22248;SDS011;67538;52.180;5.646;2023-03-23T14:13:11;13.25;;;3.80;;
22248;SDS011;67538;52.180;5.646;2023-03-23T14:15:45;12.77;;;3.35;;
22248;SDS011;67538;52.180;5.646;2023-03-23T14:18:22;11.30;;;3.08;;
22248;SDS011;67538;52.180;5.646;2023-03-23T14:20:52;11.63;;;2.92;;
22248;SDS011;67538;52.180;5.646;2023-03-23T14:23:19;10.07;;;3.13;;
22248;SDS011;67538;52.180;5.646;2023-03-23T14:25:54;16.90;;;3.90;;
22248;SDS011;67538;52.180;5.646;2023-03-23T14:28:23;13.07;;;3.97;;
22248;SDS011;67538;52.180;5.646;2023-03-23T14:30:54;13.27;;;3.80;;
22248;SDS011;67538;52.180;5.646;2023-03-23T14:33:22;14.93;;;4.28;;
22248;SDS011;67538;52.180;5.646;2023-03-23T14:35:52;14.13;;;4.18;;
22248;SDS011;67538;52.180;5.646;2023-03-23T14:38:20;16.57;;;3.80;;
22248;SDS011;67538;52.180;5.646;2023-03-23T14:40:51;12.32;;;3.25;;
22248;SDS011;67538;52.180;5.646;2023-03-23T14:43:20;12.23;;;3.33;;
22248;SDS011;67538;52.180;5.646;2023-03-23T14:45:52;13.85;;;3.65;;
22248;SDS011;67538;52.180;5.646;2023-03-23T14:48:22;14.57;;;3.58;;
22248;SDS011;67538;52.180;5.646;2023-03-23T14:50:49;12.32;;;3.72;;
22248;SDS011;67538;52.180;5.646;2023-03-23T14:53:19;13.50;;;3.55;;
22248;SDS011;67538;52.180;5.646;2023-03-23T14:55:50;11.00;;;3.50;;
22248;SDS011;67538;52.180;5.646;2023-03-23T14:58:19;11.20;;;3.50;;
22248;SDS011;67538;52.180;5.646;2023-03-23T15:00:48;13.38;;;3.63;;
22248;SDS011;67538;52.180;5.646;2023-03-23T15:03:22;14.05;;;3.53;;
22248;SDS011;67538;52.180;5.646;2023-03-23T15:05:51;14.13;;;3.72;;
22248;SDS011;67538;52.180;5.646;2023-03-23T15:08:22;14.18;;;3.50;;